Time;durP1;ratioP1;P1;durP2;ratioP2;P2;SDS_P1;SDS_P2;PMS_P1;PMS_P2;Temp;Humidity;BMP_temperature;BMP_pressure;BME280_temperature;BME280_humidity;BME280_pressure;Samples;Min_cycle;Max_cycle;Signal;HPM_P1;HPM_P2
2021/12/14 00:03:01;;;;;;;0.47;0.47;;;;;;;11.76;66.62;102730.75;5105217;27;20401;-83
2021/12/14 00:05:30;;;;;;;0.10;0.10;;;;;;;11.77;66.54;102731.63;5090422;28;20032;-83
2021/12/14 00:08:01;;;;;;;1.95;1.08;;;;;;;11.83;66.60;102744.94;5089855;28;20029;-83
2021/12/14 00:13:44;;;;;;;0.22;0.22;;;;;;;11.65;67.03;102736.00;5072979;28;20853;-84
2021/12/14 00:16:11;;;;;;;0.43;0.43;;;;;;;11.78;66.52;102731.63;5055484;28;20518;-83
2021/12/14 00:18:38;;;;;;;1.23;1.23;;;;;;;11.78;66.33;102746.69;5053116;28;20029;-83
2021/12/14 00:21:18;;;;;;;0.10;0.10;;;;;;;11.72;66.75;102751.97;5047130;28;20045;-83
2021/12/14 00:24:16;;;;;;;0.30;0.30;;;;;;;11.68;66.81;102760.81;5045098;28;20087;-83
2021/12/14 00:26:34;;;;;;;0.65;0.65;;;;;;;11.69;66.16;102751.94;5034086;28;20080;-82
2021/12/14 00:29:00;;;;;;;1.02;1.02;;;;;;;11.72;66.33;102746.66;5031962;28;20076;-84
2021/12/14 00:31:27;;;;;;;1.30;1.27;;;;;;;11.63;66.80;102748.34;5033312;28;20465;-82
2021/12/14 00:34:00;;;;;;;3.45;0.85;;;;;;;11.67;66.39;102738.66;5035215;28;20053;-84
2021/12/14 00:36:26;;;;;;;0.32;0.32;;;;;;;11.63;66.68;102743.06;5043872;28;20038;-82
2021/12/14 00:38:56;;;;;;;0.10;0.10;;;;;;;11.66;66.83;102755.47;5037211;28;20512;-83
2021/12/14 00:41:26;;;;;;;0.47;0.47;;;;;;;11.73;66.80;102759.06;5034932;28;21010;-84
2021/12/14 00:43:54;;;;;;;0.90;0.90;;;;;;;11.63;66.65;102753.66;5032745;28;20059;-82
2021/12/14 00:46:21;;;;;;;0.20;0.20;;;;;;;11.65;66.75;102743.97;5036440;28;20096;-83
2021/12/14 00:48:49;;;;;;;0.10;0.10;;;;;;;11.63;66.67;102731.56;5038427;28;20030;-85
2021/12/14 00:51:18;;;;;;;0.70;0.70;;;;;;;11.60;66.42;102720.91;5039335;28;20037;-84
2021/12/14 00:53:44;;;;;;;0.13;0.13;;;;;;;11.63;66.94;102721.81;5035247;28;20481;-84
2021/12/14 00:56:12;;;;;;;1.38;1.20;;;;;;;11.57;67.19;102721.78;5047008;28;20083;-83
2021/12/14 00:58:41;;;;;;;0.10;0.10;;;;;;;11.58;67.35;102712.94;5047604;28;20029;-84
2021/12/14 01:01:13;;;;;;;1.10;0.65;;;;;;;11.57;67.05;102721.78;5047243;28;20022;-84
2021/12/14 01:03:53;;;;;;;0.40;0.40;;;;;;;11.62;67.04;102717.38;5045817;28;20433;-83
2021/12/14 01:06:22;;;;;;;1.17;1.17;;;;;;;11.63;67.21;102716.50;5043040;28;20036;-84
2021/12/14 01:08:50;;;;;;;0.45;0.45;;;;;;;11.56;67.09;102717.34;5044344;28;20132;-83
2021/12/14 01:11:22;;;;;;;0.98;0.98;;;;;;;11.62;67.05;102717.38;5043751;28;20033;-84
2021/12/14 01:14:00;;;;;;;0.20;0.20;;;;;;;11.61;67.00;102710.31;5033478;28;20060;-84
2021/12/14 01:16:47;;;;;;;0.15;0.15;;;;;;;11.69;66.84;102682.88;5035972;28;20088;-84
2021/12/14 01:19:19;;;;;;;0.55;0.55;;;;;;;11.62;66.96;102688.16;5037459;28;20080;-83
2021/12/14 01:27:32;;;;;;;1.10;0.45;;;;;;;11.63;67.27;102711.19;5115900;27;20897;-83
2021/12/14 01:30:03;;;;;;;0.35;0.35;;;;;;;11.55;67.59;102686.38;5110839;28;20095;-82
2021/12/14 01:32:33;;;;;;;0.10;0.10;;;;;;;11.57;67.31;102689.03;5109865;28;20028;-83
2021/12/14 01:35:01;;;;;;;0.35;0.35;;;;;;;11.56;66.96;102690.78;5100575;28;20399;-82
2021/12/14 01:37:39;;;;;;;0.75;0.75;;;;;;;11.58;67.69;102683.72;5109040;28;20474;-83
2021/12/14 01:40:17;;;;;;;4.10;0.75;;;;;;;11.55;67.06;102682.81;5105953;28;20412;-83
2021/12/14 01:42:43;;;;;;;0.10;0.10;;;;;;;11.58;67.48;102686.38;5103265;28;20036;-82
2021/12/14 01:45:26;;;;;;;0.40;0.40;;;;;;;11.69;67.18;102693.50;5108632;28;21485;-83
2021/12/14 01:47:57;;;;;;;0.35;0.35;;;;;;;11.58;67.35;102699.66;5116946;28;20011;-83
2021/12/14 01:50:31;;;;;;;2.08;1.85;;;;;;;11.50;67.38;102704.03;5107728;27;20027;-84
2021/12/14 01:52:59;;;;;;;0.35;0.35;;;;;;;11.43;68.01;102712.84;5105263;27;20119;-83
2021/12/14 01:55:31;;;;;;;0.10;0.10;;;;;;;11.52;67.97;102707.59;5107999;28;20533;-83
2021/12/14 01:58:00;;;;;;;14.20;0.90;;;;;;;11.46;67.66;102705.81;5102382;28;20041;-82
2021/12/14 02:00:33;;;;;;;0.30;0.30;;;;;;;11.41;67.89;102696.91;5102977;28;20075;-83
2021/12/14 02:03:02;;;;;;;0.57;0.57;;;;;;;11.47;67.51;102690.75;5105974;28;20523;-83
2021/12/14 02:05:34;;;;;;;2.47;2.05;;;;;;;11.44;67.72;102694.28;5100050;28;20031;-84
2021/12/14 02:08:04;;;;;;;0.65;0.65;;;;;;;11.42;67.89;102711.06;5107344;27;20039;-83
2021/12/14 02:10:36;;;;;;;13.15;1.50;;;;;;;11.47;68.08;102698.72;5101236;27;20028;-83
2021/12/14 02:13:05;;;;;;;1.83;1.73;;;;;;;11.49;67.25;102718.19;5097520;27;20028;-83
2021/12/14 02:15:37;;;;;;;0.73;0.73;;;;;;;11.53;67.42;102709.38;5111212;28;20389;-83
2021/12/14 02:18:10;;;;;;;0.90;0.60;;;;;;;11.49;68.01;102704.94;5105759;27;20053;-82
2021/12/14 02:20:39;;;;;;;2.10;1.38;;;;;;;11.42;67.88;102695.16;5100314;28;20378;-81
2021/12/14 02:23:07;;;;;;;0.40;0.40;;;;;;;11.47;67.81;102698.72;5104411;28;20463;-83
2021/12/14 02:25:34;;;;;;;0.20;0.20;;;;;;;11.52;67.36;102685.47;5103631;28;20475;-82
2021/12/14 02:28:04;;;;;;;0.77;0.77;;;;;;;11.52;67.52;102689.00;5107518;27;20024;-84
2021/12/14 02:30:32;;;;;;;1.80;1.48;;;;;;;11.45;67.37;102684.53;5112722;28;20027;-82
2021/12/14 02:33:08;;;;;;;0.77;0.77;;;;;;;11.49;67.39;102684.56;5105987;28;20028;-82
2021/12/14 02:35:35;;;;;;;1.23;1.13;;;;;;;11.44;67.80;102681.00;5117693;27;20076;-82
2021/12/14 02:38:08;;;;;;;0.88;0.88;;;;;;;11.51;67.19;102679.25;5089213;28;20382;-83
2021/12/14 02:40:57;;;;;;;3.42;1.73;;;;;;;11.50;67.51;102688.09;5090712;28;20023;-81
2021/12/14 02:49:01;;;;;;;0.82;0.82;;;;;;;11.43;67.44;102670.38;5072461;27;20795;-83
2021/12/14 02:57:06;;;;;;;0.10;0.10;;;;;;;11.48;67.43;102681.91;5115909;27;20412;-83
2021/12/14 02:59:35;;;;;;;0.45;0.45;;;;;;;11.40;67.76;102675.66;5123338;27;20080;-83
2021/12/14 03:02:05;;;;;;;1.27;0.85;;;;;;;11.45;67.71;102658.91;5102853;28;20032;-83
2021/12/14 03:04:37;;;;;;;1.52;1.48;;;;;;;11.43;67.62;102662.44;5111088;28;20032;-84
2021/12/14 03:07:04;;;;;;;0.30;0.30;;;;;;;11.42;67.80;102658.00;5114166;28;20056;-83
2021/12/14 03:09:54;;;;;;;0.22;0.22;;;;;;;11.39;67.33;102664.16;5117072;27;20027;-83
2021/12/14 03:12:30;;;;;;;0.30;0.30;;;;;;;11.38;67.27;102666.81;5103161;28;20035;-84
2021/12/14 03:15:06;;;;;;;0.45;0.45;;;;;;;11.33;67.35;102675.63;5114641;28;20478;-83
2021/12/14 03:17:33;;;;;;;0.52;0.52;;;;;;;11.42;67.16;102685.41;5108414;27;20031;-83
2021/12/14 03:20:07;;;;;;;0.30;0.30;;;;;;;11.38;67.69;102682.75;5099464;28;20048;-84
2021/12/14 03:22:42;;;;;;;0.45;0.45;;;;;;;11.41;67.38;102674.78;5105015;28;20046;-84
2021/12/14 03:25:10;;;;;;;2.03;0.95;;;;;;;11.37;67.17;102688.94;5099015;28;20445;-83
2021/12/14 03:27:39;;;;;;;0.30;0.30;;;;;;;11.41;67.27;102691.59;5121430;27;20030;-84
2021/12/14 03:30:21;;;;;;;0.10;0.10;;;;;;;11.43;67.26;102692.50;5104965;28;20023;-83
2021/12/14 03:32:48;;;;;;;0.20;0.20;;;;;;;11.30;67.31;102691.53;5111476;28;20028;-83
2021/12/14 03:35:14;;;;;;;0.82;0.82;;;;;;;11.37;67.12;102683.63;5123087;28;20027;-83
2021/12/14 03:37:40;;;;;;;0.55;0.55;;;;;;;11.40;67.15;102686.28;5122702;27;20035;-83
2021/12/14 03:40:08;;;;;;;0.52;0.52;;;;;;;11.38;67.05;102694.25;5106616;28;20098;-83
2021/12/14 03:42:39;;;;;;;0.28;0.28;;;;;;;11.38;67.31;102690.72;5119992;28;20031;-84
2021/12/14 03:45:12;;;;;;;0.15;0.15;;;;;;;11.38;66.76;102696.03;5106725;27;20050;-83
2021/12/14 03:47:40;;;;;;;;;;;;;;;11.43;66.82;102704.91;5101917;28;20024;-83
2021/12/14 03:50:11;;;;;;;0.20;0.20;;;;;;;11.29;67.10;102705.69;5101848;28;20271;-83
2021/12/14 03:52:40;;;;;;;0.52;0.52;;;;;;;11.30;66.96;102712.78;5097790;28;20028;-83
2021/12/14 03:55:28;;;;;;;0.10;0.10;;;;;;;11.36;66.73;102709.25;5102989;28;20081;-84
2021/12/14 03:57:55;;;;;;;0.20;0.20;;;;;;;11.31;66.93;102714.56;5107334;27;20032;-84
2021/12/14 04:00:27;;;;;;;0.65;0.63;;;;;;;11.27;67.41;102712.72;5100814;28;20035;-83
2021/12/14 04:02:55;;;;;;;;;;;;;;;11.45;66.71;102700.47;5102308;28;20422;-83
2021/12/14 04:05:22;;;;;;;2.08;1.98;;;;;;;11.31;66.82;102695.97;5106418;27;19930;-83
2021/12/14 04:07:49;;;;;;;0.60;0.60;;;;;;;11.29;66.85;102688.84;5089701;28;20036;-84
2021/12/14 04:10:31;;;;;;;1.73;1.08;;;;;;;11.28;66.84;102693.28;5090931;28;20028;-84
2021/12/14 04:12:59;;;;;;;0.10;0.10;;;;;;;11.26;67.29;102692.38;5085332;28;20028;-83
2021/12/14 04:15:25;;;;;;;0.10;0.10;;;;;;;11.26;66.82;102692.38;5085298;28;20052;-83
2021/12/14 04:17:52;;;;;;;0.50;0.50;;;;;;;11.26;66.90;102694.16;5096930;28;20032;-83
2021/12/14 04:20:22;;;;;;;0.85;0.85;;;;;;;11.16;67.03;102686.16;5085274;28;20021;-83
2021/12/14 04:22:49;;;;;;;1.55;1.50;;;;;;;11.16;67.48;102693.19;5086974;28;20031;-83
2021/12/14 04:25:19;;;;;;;0.38;0.38;;;;;;;11.09;67.09;102692.28;5098238;28;20044;-83
2021/12/14 04:27:46;;;;;;;0.20;0.20;;;;;;;11.12;67.01;102702.03;5094713;28;20386;-84
2021/12/14 04:30:15;;;;;;;0.30;0.30;;;;;;;11.14;67.11;102694.94;5101216;28;20023;-84
2021/12/14 04:32:44;;;;;;;1.40;1.40;;;;;;;11.17;67.20;102687.91;5089827;28;20036;-83
2021/12/14 04:35:11;;;;;;;0.30;0.30;;;;;;;11.20;66.96;102684.38;5092160;28;20035;-83
2021/12/14 04:37:40;;;;;;;0.40;0.40;;;;;;;11.22;67.03;102690.59;5091690;28;20085;-84
2021/12/14 04:51:57;;;;;;;1.00;1.00;;;;;;;11.22;66.83;102690.59;5102243;28;20019;-84
2021/12/14 04:54:06;;;;;;;0.15;0.15;;;;;;;11.12;66.92;102665.75;5094032;28;20028;-84
2021/12/14 04:56:46;;;;;;;0.10;0.10;;;;;;;11.09;67.16;102667.50;5089740;28;20042;-84
2021/12/14 04:59:24;;;;;;;1.25;0.65;;;;;;;11.12;66.75;102665.75;5092978;28;20032;-83
2021/12/14 05:01:55;;;;;;;0.47;0.47;;;;;;;11.07;67.05;102666.63;5090957;28;20036;-84
2021/12/14 05:04:24;;;;;;;0.55;0.55;;;;;;;11.07;66.98;102672.78;5096767;28;20077;-83
2021/12/14 05:06:56;;;;;;;0.30;0.30;;;;;;;11.06;67.13;102675.44;5090454;28;20059;-84
2021/12/14 05:09:27;;;;;;;;;;;;;;;11.20;66.58;102668.44;5089669;28;20047;-83
2021/12/14 05:14:39;;;;;;;0.93;0.93;;;;;;;11.06;67.04;102662.19;5071686;28;20429;-83
2021/12/14 05:17:10;;;;;;;0.20;0.20;;;;;;;11.10;67.07;102669.28;5077188;28;20067;-83
2021/12/14 05:19:39;;;;;;;0.10;0.10;;;;;;;11.08;66.78;102666.63;5073658;28;20025;-83
2021/12/14 05:22:10;;;;;;;1.30;1.23;;;;;;;11.07;67.22;102656.88;5058145;28;20025;-83
2021/12/14 05:24:40;;;;;;;2.47;1.02;;;;;;;11.09;66.51;102654.22;5052897;28;20120;-83
2021/12/14 05:27:10;;;;;;;1.08;1.00;;;;;;;11.06;66.86;102657.75;5049753;28;20035;-84
2021/12/14 05:29:39;;;;;;;0.40;0.40;;;;;;;11.05;66.89;102655.09;5051668;28;20036;-84
2021/12/14 05:32:07;;;;;;;1.98;1.88;;;;;;;11.07;66.70;102659.53;5048729;28;20083;-84
2021/12/14 05:34:36;;;;;;;0.73;0.73;;;;;;;11.07;67.08;102666.63;5051483;28;20025;-83
2021/12/14 05:37:03;;;;;;;0.10;0.10;;;;;;;11.06;66.76;102670.13;5043752;28;20033;-84
2021/12/14 05:39:48;;;;;;;0.43;0.43;;;;;;;11.10;66.67;102671.94;5049627;28;20037;-83
2021/12/14 05:45:07;;;;;;;0.32;0.32;;;;;;;11.02;66.42;102668.34;5041493;28;20068;-83
2021/12/14 05:47:42;;;;;;;1.15;1.15;;;;;;;11.13;66.55;102674.63;5053828;28;20032;-83
2021/12/14 05:50:12;;;;;;;0.55;0.55;;;;;;;11.09;66.35;102671.06;5048408;28;20029;-84
2021/12/14 05:52:38;;;;;;;0.32;0.32;;;;;;;11.03;66.90;102680.72;5039616;28;20588;-83
2021/12/14 05:55:05;;;;;;;0.20;0.20;;;;;;;11.04;66.62;102683.41;5048044;28;20408;-84
2021/12/14 05:57:31;;;;;;;1.40;0.85;;;;;;;11.03;67.00;102686.00;5047218;28;20069;-84
2021/12/14 05:59:57;;;;;;;0.13;0.13;;;;;;;11.08;66.48;102685.19;5044412;28;20029;-83
2021/12/14 06:02:23;;;;;;;0.20;0.20;;;;;;;11.12;66.41;102692.28;5039088;28;20038;-84
2021/12/14 06:04:53;;;;;;;0.82;0.50;;;;;;;11.05;66.65;102694.88;5049108;28;20044;-83
2021/12/14 06:07:20;;;;;;;0.20;0.20;;;;;;;11.03;66.70;102692.22;5042344;28;20030;-83
2021/12/14 06:09:49;;;;;;;1.55;1.45;;;;;;;11.02;66.53;102695.75;5044333;28;20033;-83
2021/12/14 06:12:20;;;;;;;0.10;0.10;;;;;;;11.09;66.92;102689.63;5039002;28;20030;-83
2021/12/14 06:14:53;;;;;;;0.10;0.10;;;;;;;11.07;66.87;102687.84;5045222;28;20040;-84
2021/12/14 06:17:30;;;;;;;0.15;0.15;;;;;;;11.04;66.39;102685.16;5040199;28;20544;-83
2021/12/14 06:20:04;;;;;;;0.77;0.77;;;;;;;11.07;66.69;102693.16;5045897;28;20562;-84
2021/12/14 06:22:30;;;;;;;0.10;0.10;;;;;;;11.14;66.30;102697.59;5045532;28;20045;-84
2021/12/14 06:25:01;;;;;;;0.47;0.38;;;;;;;11.07;66.71;102698.44;5030063;28;20073;-81
2021/12/14 06:27:30;;;;;;;0.47;0.47;;;;;;;11.08;66.56;102697.53;5045145;28;20102;-83
2021/12/14 06:29:59;;;;;;;2.30;0.85;;;;;;;11.11;66.61;102693.16;5039123;28;20128;-83
2021/12/14 06:32:34;;;;;;;2.55;1.65;;;;;;;11.08;66.26;102695.81;5030888;28;20114;-83
2021/12/14 06:35:08;;;;;;;0.32;0.32;;;;;;;11.10;66.26;102709.06;5027671;28;20029;-83
2021/12/14 06:41:05;;;;;;;3.03;1.17;;;;;;;11.09;66.63;102715.25;5071911;28;20408;-83
2021/12/14 06:43:37;;;;;;;0.40;0.40;;;;;;;11.05;66.62;102710.81;5062486;28;20064;-83
2021/12/14 06:46:08;;;;;;;0.43;0.43;;;;;;;11.12;66.61;102712.63;5061211;28;20067;-84
2021/12/14 06:48:40;;;;;;;1.85;1.75;;;;;;;11.15;66.95;102713.53;5070449;28;20090;-84
2021/12/14 06:51:12;;;;;;;0.20;0.20;;;;;;;11.20;66.69;102715.34;5065008;28;20079;-85
2021/12/14 06:53:41;;;;;;;1.30;1.30;;;;;;;11.15;66.27;102717.94;5064732;28;20041;-84
2021/12/14 06:56:11;;;;;;;0.22;0.22;;;;;;;11.20;66.30;102725.94;5080496;28;20028;-84
2021/12/14 06:58:56;;;;;;;0.40;0.40;;;;;;;11.18;66.35;102715.34;5074832;28;20083;-83
2021/12/14 07:01:28;;;;;;;0.15;0.15;;;;;;;11.21;66.55;102717.13;5084872;28;20028;-84
2021/12/14 07:12:12;;;;;;;0.20;0.20;;;;;;;11.10;66.80;102740.91;5061030;28;20418;-83
2021/12/14 07:23:28;;;;;;;2.38;1.02;;;;;;;11.16;66.44;102735.66;5072150;27;20958;-83
2021/12/14 07:26:01;;;;;;;1.48;1.42;;;;;;;11.14;66.80;102729.44;5068019;28;20586;-84
2021/12/14 07:28:28;;;;;;;;;;;;;;;11.29;66.33;102742.84;5068468;28;20151;-83
2021/12/14 07:30:58;;;;;;;3.03;0.88;;;;;;;11.16;66.42;102735.66;5066298;28;19968;-84
2021/12/14 07:33:31;;;;;;;0.15;0.15;;;;;;;11.17;66.34;102737.44;5069435;28;20021;-83
2021/12/14 07:41:40;;;;;;;1.63;1.52;;;;;;;11.18;66.68;102755.13;5069141;28;20507;-83
2021/12/14 07:44:15;;;;;;;0.10;0.10;;;;;;;11.17;65.99;102764.84;5063467;28;20065;-84
2021/12/14 07:46:47;;;;;;;0.73;0.73;;;;;;;11.20;66.28;102753.34;5063221;28;20029;-83
2021/12/14 07:49:36;;;;;;;0.88;0.88;;;;;;;11.24;66.03;102759.56;5062300;28;20112;-86
2021/12/14 07:54:55;;;;;;;1.08;0.65;;;;;;;11.12;66.50;102765.69;5064073;27;20434;-83
2021/12/14 08:00:11;;;;;;;1.08;1.02;;;;;;;11.23;66.23;102773.75;5061925;28;21018;-84
2021/12/14 08:02:40;;;;;;;0.40;0.40;;;;;;;11.19;66.71;102783.44;5053162;28;20035;-84
2021/12/14 08:08:07;;;;;;;0.65;0.65;;;;;;;11.23;66.55;102785.25;5071572;27;20884;-83
2021/12/14 08:10:41;;;;;;;0.75;0.75;;;;;;;11.19;67.04;102782.53;5065527;28;20044;-82
2021/12/14 08:13:13;;;;;;;0.65;0.65;;;;;;;11.25;66.68;102786.16;5065566;28;20024;-84
2021/12/14 08:15:47;;;;;;;5.10;1.17;;;;;;;11.23;66.42;102790.53;5063067;28;20048;-83
2021/12/14 08:18:18;;;;;;;0.10;0.10;;;;;;;11.21;67.08;102792.28;5063470;28;20025;-84
2021/12/14 08:26:15;;;;;;;0.22;0.22;;;;;;;11.28;66.90;102791.47;5060339;27;20422;-82
2021/12/14 08:29:00;;;;;;;1.55;0.35;;;;;;;11.37;66.81;102793.31;5051229;28;20028;-91
2021/12/14 08:31:38;;;;;;;0.47;0.47;;;;;;;11.45;66.64;102790.72;5045578;28;20041;-85
2021/12/14 08:34:08;;;;;;;0.80;0.77;;;;;;;11.41;66.85;102788.91;5028450;28;20041;-84
2021/12/14 08:36:43;;;;;;;1.73;1.65;;;;;;;11.46;66.96;102796.06;5022119;28;20033;-85
2021/12/14 08:39:18;;;;;;;4.25;1.02;;;;;;;11.49;66.56;102792.53;5033123;28;20084;-84
2021/12/14 08:41:52;;;;;;;1.17;1.17;;;;;;;11.39;67.00;102802.19;5043524;28;20045;-81
2021/12/14 08:44:34;;;;;;;2.00;0.47;;;;;;;11.41;67.18;102810.16;5049492;28;20036;-83
2021/12/14 08:47:06;;;;;;;;;;;;;;;11.54;66.92;102814.69;5050551;28;20036;-83
2021/12/14 08:49:32;;;;;;;0.30;0.30;;;;;;;11.40;67.22;102816.34;5049887;28;19915;-83
2021/12/14 08:51:59;;;;;;;0.43;0.43;;;;;;;11.38;67.63;102826.94;5044562;28;20040;-82
2021/12/14 08:54:29;;;;;;;0.20;0.20;;;;;;;11.36;67.54;102822.50;5031447;28;20104;-84
2021/12/14 08:59:43;;;;;;;0.30;0.30;;;;;;;11.45;67.34;102819.91;5068301;27;20431;-84
2021/12/14 09:02:13;;;;;;;0.77;0.77;;;;;;;11.45;67.86;102817.25;5037514;28;20033;-83
2021/12/14 09:04:52;;;;;;;0.30;0.30;;;;;;;11.51;67.91;102811.13;5041078;28;20513;-84
2021/12/14 09:07:25;;;;;;;2.58;2.38;;;;;;;11.49;67.40;102797.84;5037972;28;20727;-83
2021/12/14 09:09:53;;;;;;;0.68;0.68;;;;;;;11.53;67.53;102804.06;5031923;28;20065;-85
2021/12/14 09:12:25;;;;;;;0.73;0.73;;;;;;;11.54;67.86;102796.09;5029266;28;20026;-85
2021/12/14 09:14:57;;;;;;;0.90;0.90;;;;;;;11.56;67.45;102799.63;5047854;28;20033;-85
2021/12/14 09:17:26;;;;;;;0.70;0.70;;;;;;;11.50;67.86;102804.91;5047985;28;20028;-85
2021/12/14 09:20:04;;;;;;;0.30;0.30;;;;;;;11.45;68.28;102811.94;5031953;28;20076;-83
2021/12/14 09:22:35;;;;;;;0.47;0.47;;;;;;;11.45;67.88;102810.19;5031436;28;20025;-83
2021/12/14 09:25:06;;;;;;;0.10;0.10;;;;;;;11.49;68.09;102805.81;5032707;28;20026;-84
2021/12/14 09:27:34;;;;;;;0.20;0.20;;;;;;;11.53;67.61;102809.38;5038103;28;20043;-85
2021/12/14 09:30:03;;;;;;;0.10;0.10;;;;;;;11.49;68.04;102809.34;5029060;28;20091;-84
2021/12/14 09:32:30;;;;;;;0.17;0.17;;;;;;;11.51;68.11;102808.47;5030591;28;20132;-85
2021/12/14 09:34:58;;;;;;;5.30;2.45;;;;;;;11.53;68.30;102815.56;5029294;28;20018;-84
2021/12/14 09:37:27;;;;;;;0.20;0.20;;;;;;;11.55;68.28;102803.19;5029330;28;20022;-85
2021/12/14 09:39:59;;;;;;;3.65;0.85;;;;;;;11.54;68.37;102816.44;5030897;28;20030;-83
2021/12/14 09:42:32;;;;;;;1.00;1.00;;;;;;;11.59;68.34;102804.97;5030414;28;20034;-83
2021/12/14 09:45:06;;;;;;;1.02;0.80;;;;;;;11.64;68.32;102807.69;5032933;28;20029;-84
2021/12/14 09:47:33;;;;;;;0.47;0.47;;;;;;;11.72;68.12;102811.25;5032362;28;20110;-83
2021/12/14 09:50:05;;;;;;;0.20;0.20;;;;;;;11.78;67.70;102805.13;5031207;28;20068;-83
2021/12/14 09:52:36;;;;;;;0.30;0.30;;;;;;;11.73;67.71;102812.16;5029079;28;20115;-85
2021/12/14 09:55:07;;;;;;;0.38;0.38;;;;;;;11.75;68.20;102805.97;5030165;28;20029;-85
2021/12/14 09:57:37;;;;;;;0.30;0.30;;;;;;;11.76;68.09;102807.78;5029002;28;20152;-84
2021/12/14 10:00:14;;;;;;;0.63;0.63;;;;;;;11.76;67.71;102813.09;5029350;28;20056;-84
2021/12/14 10:02:42;;;;;;;1.15;1.15;;;;;;;11.78;67.80;102799.81;5029021;28;20393;-85
2021/12/14 10:07:58;;;;;;;0.55;0.55;;;;;;;11.82;67.85;102796.28;5071477;27;20848;-84
2021/12/14 10:10:25;;;;;;;0.75;0.75;;;;;;;11.86;68.14;102792.75;5069942;28;20446;-82
2021/12/14 10:12:55;;;;;;;0.77;0.77;;;;;;;11.85;68.01;102803.38;5065219;28;20116;-82
2021/12/14 10:18:11;;;;;;;0.25;0.25;;;;;;;11.92;67.75;102800.75;5076439;27;20456;-82
2021/12/14 10:20:44;;;;;;;0.80;0.80;;;;;;;11.91;67.74;102801.66;5069925;28;20119;-84
2021/12/14 10:23:13;;;;;;;0.20;0.20;;;;;;;11.91;67.65;102791.03;5049610;28;20044;-85
2021/12/14 10:25:41;;;;;;;0.70;0.70;;;;;;;11.97;67.83;102795.50;5050537;28;20033;-86
2021/12/14 10:28:08;;;;;;;0.57;0.57;;;;;;;12.04;67.53;102801.78;5049425;28;20400;-83
2021/12/14 10:30:40;;;;;;;0.85;0.85;;;;;;;12.07;67.56;102804.44;5048612;28;20030;-84
2021/12/14 10:33:06;;;;;;;0.38;0.38;;;;;;;12.13;67.12;102808.00;5049798;28;20053;-84
2021/12/14 10:35:41;;;;;;;2.22;2.13;;;;;;;12.16;67.29;102809.78;5049539;28;20534;-83
2021/12/14 10:38:21;;;;;;;0.95;0.90;;;;;;;12.19;67.53;102811.59;5048746;28;20029;-83
2021/12/14 10:43:40;;;;;;;6.40;2.70;;;;;;;12.16;67.97;102811.56;5048379;28;20052;-85
2021/12/14 10:46:22;;;;;;;0.45;0.45;;;;;;;12.34;67.23;102813.41;5048585;28;20029;-83
2021/12/14 10:48:50;;;;;;;0.45;0.45;;;;;;;12.23;67.60;102806.28;5048932;28;20044;-84
2021/12/14 10:51:22;;;;;;;0.50;0.50;;;;;;;12.26;67.33;102813.38;5049830;28;20037;-84
2021/12/14 10:53:52;;;;;;;0.90;0.90;;;;;;;12.31;67.68;102808.94;5046246;28;20369;-84
2021/12/14 10:56:27;;;;;;;1.10;1.10;;;;;;;12.34;67.26;102810.75;5048482;28;20032;-86
2021/12/14 10:58:57;;;;;;;0.47;0.47;;;;;;;12.38;66.96;102808.09;5047631;28;20495;-85
2021/12/14 11:01:31;;;;;;;0.30;0.30;;;;;;;12.33;67.13;102808.97;5046230;28;20101;-85
2021/12/14 11:04:05;;;;;;;1.90;1.80;;;;;;;12.41;67.59;102812.53;5046619;28;20029;-84
2021/12/14 11:06:33;;;;;;;2.08;1.15;;;;;;;12.33;67.28;102801.88;5045881;28;20438;-85
2021/12/14 11:11:59;;;;;;;0.90;0.90;;;;;;;12.45;67.44;102803.72;5108455;27;20419;-84
2021/12/14 11:14:34;;;;;;;2.03;1.92;;;;;;;12.33;68.02;102801.00;5091162;28;20024;-84
2021/12/14 11:19:57;;;;;;;0.20;0.20;;;;;;;12.29;67.97;102797.44;5098953;28;20036;-83
2021/12/14 11:25:16;;;;;;;19.67;2.05;;;;;;;12.22;68.43;102799.16;5072336;28;20414;-81
2021/12/14 11:27:48;;;;;;;0.73;0.73;;;;;;;12.22;68.30;102801.81;5055446;28;20029;-82
2021/12/14 11:30:20;;;;;;;0.73;0.73;;;;;;;12.24;68.39;102802.72;5061861;28;20021;-83
2021/12/14 11:33:02;;;;;;;0.75;0.73;;;;;;;12.25;68.19;102796.53;5061428;28;20039;-83
2021/12/14 11:35:30;;;;;;;0.52;0.52;;;;;;;12.19;68.76;102793.84;5052254;28;20037;-83
2021/12/14 11:37:59;;;;;;;0.30;0.30;;;;;;;12.22;68.98;102791.19;5052157;28;20029;-83
2021/12/14 11:40:29;;;;;;;1.42;1.35;;;;;;;12.26;69.14;102795.66;5049525;28;20029;-83
2021/12/14 11:43:12;;;;;;;0.35;0.35;;;;;;;12.31;68.68;102800.97;5049948;28;20373;-82
2021/12/14 11:45:38;;;;;;;0.55;0.55;;;;;;;12.23;69.13;102798.28;5062084;28;20029;-82
2021/12/14 11:48:05;;;;;;;0.30;0.30;;;;;;;12.23;69.40;102792.97;5050400;28;20029;-82
2021/12/14 11:50:38;;;;;;;1.17;1.10;;;;;;;12.32;68.88;102791.25;5049062;28;20033;-82
2021/12/14 11:55:52;;;;;;;0.15;0.15;;;;;;;12.25;69.00;102785.00;5067848;27;20435;-81
2021/12/14 12:09:53;;;;;;;1.08;1.05;;;;;;;12.27;69.76;102789.47;5061066;28;20400;-86
2021/12/14 12:12:39;;;;;;;1.85;1.73;;;;;;;12.39;69.26;102791.28;5047431;28;20029;-83
2021/12/14 12:17:51;;;;;;;0.20;0.20;;;;;;;12.14;70.39;102792.94;5069101;28;20398;-83
2021/12/14 12:20:24;;;;;;;0.77;0.77;;;;;;;12.16;70.34;102783.19;5069943;28;20057;-83
2021/12/14 12:22:53;;;;;;;;;;;;;;;12.36;69.58;102787.72;5052812;28;20026;-83
2021/12/14 12:31:04;;;;;;;1.17;1.17;;;;;;;12.25;69.48;102791.22;5089270;27;20427;-82
2021/12/14 12:36:41;;;;;;;0.43;0.43;;;;;;;12.28;69.70;102775.28;5072497;27;20414;-82
2021/12/14 12:39:15;;;;;;;3.42;0.82;;;;;;;12.27;69.66;102783.25;5050603;28;20024;-82
2021/12/14 12:42:03;;;;;;;2.08;1.00;;;;;;;12.24;70.09;102776.16;5044321;28;20044;-81
2021/12/14 12:50:05;;;;;;;0.50;0.50;;;;;;;12.23;69.79;102769.06;5069920;27;20406;-83
2021/12/14 12:52:37;;;;;;;0.10;0.10;;;;;;;12.26;70.80;102761.13;5069685;28;20039;-82
2021/12/14 12:55:12;;;;;;;0.30;0.30;;;;;;;12.32;70.85;102757.56;5067568;28;20032;-81
2021/12/14 13:00:56;;;;;;;0.10;0.10;;;;;;;12.43;69.82;102746.97;5072227;27;20423;-82
2021/12/14 13:03:28;;;;;;;15.18;1.80;;;;;;;12.32;70.85;102756.69;5049974;28;20437;-82
2021/12/14 13:05:59;;;;;;;0.52;0.45;;;;;;;12.30;70.71;102746.94;5049709;28;20489;-82
2021/12/14 13:11:17;;;;;;;2.55;0.73;;;;;;;12.45;70.57;102746.09;5068110;27;20403;-82
2021/12/14 13:13:51;;;;;;;0.10;0.10;;;;;;;12.51;70.51;102739.94;5050860;28;20037;-82
2021/12/14 13:19:03;;;;;;;0.25;0.25;;;;;;;12.61;70.54;102751.44;5073907;27;20413;-82
2021/12/14 13:21:40;;;;;;;0.10;0.10;;;;;;;12.57;70.17;102755.00;5069629;28;20028;-82
2021/12/14 13:24:30;;;;;;;0.20;0.20;;;;;;;12.73;70.56;102753.25;5070470;28;20454;-82
2021/12/14 13:27:07;;;;;;;0.30;0.30;;;;;;;12.73;70.58;102751.47;5069518;28;20112;-82
2021/12/14 13:29:56;;;;;;;23.10;3.40;;;;;;;12.88;70.21;102760.38;5069538;28;20025;-82
2021/12/14 13:37:51;;;;;;;0.10;0.10;;;;;;;12.85;70.20;102753.28;5072375;27;20415;-82
2021/12/14 13:46:04;;;;;;;7.43;1.52;;;;;;;12.87;69.95;102746.19;5070012;28;20450;-82
2021/12/14 13:48:34;;;;;;;0.70;0.70;;;;;;;12.90;69.96;102746.19;5062558;28;20021;-82
2021/12/14 13:51:06;;;;;;;0.95;0.95;;;;;;;12.99;69.32;102747.97;5049592;28;20065;-82
2021/12/14 13:53:33;;;;;;;0.25;0.25;;;;;;;12.89;69.94;102746.19;5058288;28;20028;-82
2021/12/14 13:56:03;;;;;;;0.10;0.10;;;;;;;12.93;70.19;102747.94;5069399;28;20061;-82
2021/12/14 13:58:33;;;;;;;0.30;0.30;;;;;;;12.82;69.89;102747.06;5066864;28;20490;-81
2021/12/14 14:03:54;;;;;;;0.20;0.20;;;;;;;12.86;69.66;102752.41;5071284;27;20406;-82
2021/12/14 14:06:23;;;;;;;1.60;1.50;;;;;;;12.98;69.77;102746.19;5069430;28;20025;-81
2021/12/14 14:11:50;;;;;;;0.20;0.20;;;;;;;12.94;69.89;102744.41;5071191;28;20431;-82
2021/12/14 14:17:05;;;;;;;0.13;0.13;;;;;;;12.90;69.51;102753.28;5066807;28;20470;-83
2021/12/14 14:19:36;;;;;;;0.20;0.20;;;;;;;12.98;69.58;102747.97;5069610;28;20037;-82
2021/12/14 14:22:10;;;;;;;2.85;2.63;;;;;;;12.97;69.98;102749.72;5069770;28;20115;-82
2021/12/14 14:24:39;;;;;;;0.10;0.10;;;;;;;13.01;69.51;102745.28;5069904;28;20029;-82